Time;durP1;ratioP1;P1;durP2;ratioP2;P2;SDS_P1;SDS_P2;PMS_P1;PMS_P2;Temp;Humidity;BMP_temperature;BMP_pressure;BME280_temperature;BME280_humidity;BME280_pressure;Samples;Min_cycle;Max_cycle;Signal;HPM_P1;HPM_P2
2023/05/28 00:02:49;;;;;;;5.70;3.10;;;18.40;62.40;;;;;;12990856;22;20102;-56
2023/05/28 00:07:50;;;;;;;6.32;3.95;;;18.40;62.40;;;;;;12991027;22;20087;-55
2023/05/28 00:12:50;;;;;;;5.80;4.20;;;18.40;62.40;;;;;;13044067;22;20006;-56
2023/05/28 00:17:54;;;;;;;5.38;4.20;;;18.40;62.30;;;;;;13043187;22;19995;-57
2023/05/28 00:22:54;;;;;;;5.78;4.15;;;18.40;62.40;;;;;;13043552;22;20473;-56
2023/05/28 00:27:55;;;;;;;6.05;4.60;;;18.40;62.30;;;;;;13015840;22;20071;-56
2023/05/28 00:32:56;;;;;;;5.43;3.92;;;18.40;62.30;;;;;;13043358;22;19999;-56
2023/05/28 00:37:56;;;;;;;5.53;3.90;;;18.40;62.30;;;;;;13015786;22;19995;-57
2023/05/28 00:42:57;;;;;;;5.93;4.28;;;18.40;62.30;;;;;;13042468;22;20387;-55
2023/05/28 00:47:58;;;;;;;6.13;4.07;;;18.40;62.30;;;;;;13015214;22;20038;-57
2023/05/28 00:53:00;;;;;;;4.93;3.80;;;18.40;62.40;;;;;;13015548;22;20444;-56
2023/05/28 00:58:05;;;;;;;6.00;3.95;;;18.40;62.30;;;;;;13015786;22;20006;-57
2023/05/28 01:03:06;;;;;;;6.38;4.45;;;18.40;62.30;;;;;;13016386;22;20023;-56
2023/05/28 01:08:07;;;;;;;6.45;4.43;;;18.30;62.40;;;;;;13042481;22;20078;-57
2023/05/28 01:13:08;;;;;;;5.50;3.70;;;18.30;62.40;;;;;;13042426;22;19999;-57
2023/05/28 01:18:09;;;;;;;5.60;4.00;;;18.30;62.40;;;;;;13041980;22;20374;-58
2023/05/28 01:23:16;;;;;;;8.82;5.60;;;18.30;62.50;;;;;;13014674;22;20013;-57
2023/05/28 01:28:17;;;;;;;10.13;3.45;;;18.30;62.50;;;;;;13042304;22;20116;-56
2023/05/28 01:33:18;;;;;;;5.78;4.35;;;18.30;62.50;;;;;;13014900;22;20010;-56
2023/05/28 01:38:21;;;;;;;5.95;3.95;;;18.30;62.50;;;;;;13014893;22;20053;-56
2023/05/28 01:43:22;;;;;;;6.60;3.60;;;18.30;62.50;;;;;;13014312;22;20017;-57
2023/05/28 01:48:24;;;;;;;6.40;4.25;;;18.30;62.50;;;;;;13014498;22;20083;-57
2023/05/28 01:53:24;;;;;;;5.65;3.53;;;18.30;62.50;;;;;;13014466;22;20010;-57
2023/05/28 01:58:25;;;;;;;7.13;4.50;;;18.30;62.50;;;;;;13041691;22;20001;-56
2023/05/28 02:03:26;;;;;;;5.80;3.33;;;18.30;62.40;;;;;;13014216;22;20004;-57
2023/05/28 02:08:27;;;;;;;7.72;4.40;;;18.20;62.40;;;;;;13041655;22;19992;-57
2023/05/28 02:13:28;;;;;;;7.13;4.45;;;18.30;62.50;;;;;;13014113;22;20033;-57
2023/05/28 02:18:29;;;;;;;5.43;4.13;;;18.20;62.40;;;;;;13041106;22;19995;-56
2023/05/28 02:23:29;;;;;;;8.02;5.18;;;18.20;62.40;;;;;;13040856;22;20382;-57
2023/05/28 02:28:30;;;;;;;7.38;4.28;;;18.30;62.50;;;;;;13040807;22;20005;-57
2023/05/28 02:33:32;;;;;;;5.43;4.13;;;18.20;62.50;;;;;;13040828;22;20407;-56
2023/05/28 02:38:32;;;;;;;5.50;3.85;;;18.30;62.50;;;;;;13040456;22;20006;-56
2023/05/28 02:43:33;;;;;;;6.53;4.28;;;18.20;62.40;;;;;;13012778;22;20528;-57
2023/05/28 02:48:34;;;;;;;9.02;4.28;;;18.20;62.50;;;;;;13013602;22;20396;-56
2023/05/28 02:53:35;;;;;;;7.43;4.38;;;18.20;62.50;;;;;;13013254;22;19995;-56
2023/05/28 02:58:36;;;;;;;7.97;4.38;;;18.20;62.50;;;;;;13040553;22;20034;-56
2023/05/28 03:03:36;;;;;;;9.95;4.07;;;18.20;62.50;;;;;;13012396;22;20023;-55
2023/05/28 03:08:37;;;;;;;8.88;4.10;;;18.20;62.50;;;;;;12987192;22;20058;-56
2023/05/28 03:13:38;;;;;;;5.50;3.60;;;18.20;62.50;;;;;;13039839;22;20070;-56
2023/05/28 03:18:38;;;;;;;7.38;3.65;;;18.20;62.50;;;;;;13007364;22;20023;-57
2023/05/28 03:23:39;;;;;;;6.22;3.80;;;18.20;62.40;;;;;;13008654;22;20031;-55
2023/05/28 03:28:40;;;;;;;4.93;3.25;;;18.20;62.40;;;;;;13040030;22;20006;-56
2023/05/28 03:33:41;;;;;;;6.13;3.47;;;18.20;62.40;;;;;;13040054;22;20457;-56
2023/05/28 03:38:41;;;;;;;4.68;3.75;;;18.10;62.40;;;;;;13040031;22;20006;-56
2023/05/28 03:43:42;;;;;;;7.68;4.03;;;18.20;62.50;;;;;;12987014;22;20389;-57
2023/05/28 03:48:43;;;;;;;5.07;3.38;;;18.10;62.50;;;;;;13012421;22;19996;-56
2023/05/28 03:53:43;;;;;;;6.25;3.83;;;18.10;62.50;;;;;;13040434;22;20108;-56
2023/05/28 03:58:44;;;;;;;4.90;3.65;;;18.10;62.60;;;;;;13012116;22;20023;-55
2023/05/28 04:03:45;;;;;;;9.43;4.25;;;18.10;62.50;;;;;;13011200;22;20056;-56
2023/05/28 04:08:45;;;;;;;6.03;3.75;;;18.10;62.40;;;;;;13039895;22;20030;-58
2023/05/28 04:13:46;;;;;;;7.80;3.85;;;18.20;62.30;;;;;;13012195;22;20034;-57
2023/05/28 04:18:46;;;;;;;7.57;4.22;;;18.20;62.60;;;;;;13037725;22;20265;-55
2023/05/28 04:23:47;;;;;;;7.10;4.20;;;18.10;62.90;;;;;;13013646;22;20432;-56
2023/05/28 04:28:50;;;;;;;6.28;3.80;;;18.10;62.90;;;;;;13014891;22;19998;-56
2023/05/28 04:33:51;;;;;;;4.82;3.85;;;18.10;62.90;;;;;;13011810;22;20026;-56
2023/05/28 04:38:54;;;;;;;7.90;4.13;;;18.10;62.90;;;;;;13012583;22;20458;-56
2023/05/28 04:43:55;;;;;;;7.68;4.63;;;18.10;62.80;;;;;;13041218;22;20007;-57
2023/05/28 04:48:57;;;;;;;7.07;4.07;;;18.10;62.80;;;;;;13040128;22;20074;-54
2023/05/28 04:53:58;;;;;;;7.85;4.57;;;18.10;62.90;;;;;;13013144;22;20390;-56
2023/05/28 04:58:59;;;;;;;5.90;3.97;;;18.10;62.90;;;;;;13013243;22;19996;-56
2023/05/28 05:04:00;;;;;;;6.60;3.65;;;18.10;62.90;;;;;;13039814;22;20038;-55
2023/05/28 05:09:03;;;;;;;10.38;4.57;;;18.10;62.90;;;;;;13012828;22;20026;-56
2023/05/28 05:14:03;;;;;;;4.75;3.50;;;18.10;63.00;;;;;;13012753;22;20007;-54
2023/05/28 05:19:04;;;;;;;8.10;4.55;;;18.00;63.00;;;;;;13039925;22;19999;-56
2023/05/28 05:24:05;;;;;;;5.07;3.50;;;18.10;63.00;;;;;;13039615;22;20092;-56
2023/05/28 05:29:06;;;;;;;6.80;4.35;;;18.10;63.10;;;;;;13012514;22;19991;-57
2023/05/28 05:34:06;;;;;;;6.53;3.92;;;18.10;63.20;;;;;;13012467;22;20484;-57
2023/05/28 05:39:08;;;;;;;6.28;3.75;;;18.10;63.20;;;;;;13037668;22;20000;-56
2023/05/28 05:44:09;;;;;;;9.25;4.30;;;18.10;63.20;;;;;;13011909;22;20019;-57
2023/05/28 05:49:09;;;;;;;6.38;3.60;;;18.10;63.20;;;;;;13038874;22;20076;-55
2023/05/28 05:54:10;;;;;;;4.60;3.38;;;18.10;63.20;;;;;;13011927;22;19996;-57
2023/05/28 05:59:11;;;;;;;6.72;3.70;;;18.10;63.20;;;;;;13011870;22;20006;-57
2023/05/28 06:04:11;;;;;;;7.35;3.80;;;18.10;63.20;;;;;;13011060;22;20402;-56
2023/05/28 06:09:12;;;;;;;6.47;3.97;;;18.10;63.20;;;;;;13011002;22;20430;-57
2023/05/28 06:14:13;;;;;;;5.40;3.25;;;18.10;63.20;;;;;;13011330;22;20073;-58
2023/05/28 06:19:14;;;;;;;6.43;3.53;;;18.10;63.90;;;;;;13011391;22;20000;-55
2023/05/28 06:24:14;;;;;;;5.85;3.35;;;18.10;63.20;;;;;;13038529;22;20014;-57
2023/05/28 06:29:16;;;;;;;5.20;3.40;;;18.10;63.20;;;;;;13038526;22;20002;-55
2023/05/28 06:34:17;;;;;;;7.05;3.97;;;18.10;63.40;;;;;;13040886;22;20394;-56
2023/05/28 06:39:18;;;;;;;6.63;3.78;;;18.10;63.20;;;;;;13039344;22;20019;-56
2023/05/28 06:44:19;;;;;;;6.20;3.80;;;18.20;63.30;;;;;;12986496;22;20064;-57
2023/05/28 06:49:20;;;;;;;5.80;4.45;;;18.20;63.20;;;;;;13010835;22;20071;-56
2023/05/28 06:54:21;;;;;;;4.82;3.58;;;18.20;63.20;;;;;;13010422;22;19999;-57
2023/05/28 06:59:21;;;;;;;6.85;3.67;;;18.20;63.30;;;;;;13037884;22;20003;-57
2023/05/28 07:04:22;;;;;;;10.27;4.68;;;18.30;63.30;;;;;;13037681;22;20007;-56
2023/05/28 07:09:23;;;;;;;7.38;3.80;;;18.20;63.30;;;;;;12984093;22;20002;-56
2023/05/28 07:14:23;;;;;;;6.18;3.75;;;18.30;63.40;;;;;;13037487;22;20022;-56
2023/05/28 07:19:24;;;;;;;6.72;4.05;;;18.30;63.30;;;;;;13036330;22;20045;-56
2023/05/28 07:24:25;;;;;;;6.78;3.78;;;18.30;63.30;;;;;;13011010;22;20007;-56
2023/05/28 07:29:27;;;;;;;6.53;4.05;;;18.30;63.60;;;;;;13011985;22;19992;-57
2023/05/28 07:34:27;;;;;;;8.50;4.40;;;18.30;63.60;;;;;;13010353;22;20053;-57
2023/05/28 07:39:28;;;;;;;6.45;3.72;;;18.40;63.50;;;;;;13009679;22;20572;-55
2023/05/28 07:44:29;;;;;;;9.00;4.05;;;18.40;63.40;;;;;;12957245;22;20012;-55
2023/05/28 07:49:30;;;;;;;11.45;3.35;;;18.50;63.40;;;;;;12973342;22;20085;-57
2023/05/28 07:54:30;;;;;;;7.80;3.80;;;18.40;63.50;;;;;;12946627;22;20034;-58
2023/05/28 07:59:31;;;;;;;5.68;3.28;;;18.40;63.50;;;;;;12950555;22;19996;-57
2023/05/28 08:04:32;;;;;;;6.75;3.60;;;18.50;63.60;;;;;;12950014;22;20058;-56
2023/05/28 08:09:33;;;;;;;7.05;4.03;;;18.50;63.60;;;;;;12977331;22;19992;-57
2023/05/28 08:14:34;;;;;;;6.30;3.65;;;18.50;63.60;;;;;;12950297;22;20000;-57
2023/05/28 08:19:35;;;;;;;4.50;2.97;;;18.50;63.60;;;;;;12950250;22;20070;-57
2023/05/28 08:24:36;;;;;;;6.57;3.63;;;18.50;63.60;;;;;;12950290;22;20075;-56
2023/05/28 08:29:37;;;;;;;6.00;3.20;;;18.50;63.60;;;;;;12950695;22;20016;-56
2023/05/28 08:34:38;;;;;;;7.10;3.70;;;18.50;63.70;;;;;;12978878;22;20075;-56
2023/05/28 08:39:38;;;;;;;9.27;4.35;;;18.50;63.70;;;;;;12976802;22;19999;-56
2023/05/28 08:44:39;;;;;;;11.43;3.22;;;18.50;63.70;;;;;;13030787;22;20268;-55
2023/05/28 08:49:53;;;;;;;5.70;3.13;;;18.50;63.60;;;;;;13040909;22;20002;-57
2023/05/28 08:54:54;;;;;;;4.57;3.13;;;18.50;63.60;;;;;;13039219;22;19995;-57
2023/05/28 08:59:55;;;;;;;5.32;2.97;;;18.50;63.40;;;;;;13039490;22;20446;-56
2023/05/28 09:04:57;;;;;;;5.35;2.95;;;18.60;63.50;;;;;;13040234;22;20003;-57
2023/05/28 09:09:58;;;;;;;5.03;3.20;;;18.60;63.40;;;;;;13039763;22;20422;-57
2023/05/28 09:14:59;;;;;;;5.25;3.83;;;18.60;63.50;;;;;;13042505;22;20086;-57
2023/05/28 09:20:00;;;;;;;6.72;3.55;;;18.60;63.40;;;;;;13014926;22;20068;-56
2023/05/28 09:25:00;;;;;;;5.97;3.35;;;18.60;63.30;;;;;;13014528;22;20019;-57
2023/05/28 09:30:07;;;;;;;7.53;3.03;;;18.60;63.30;;;;;;13013295;22;19999;-56
2023/05/28 09:35:08;;;;;;;5.50;3.38;;;18.70;63.40;;;;;;13012505;22;20003;-56
2023/05/28 09:40:09;;;;;;;4.55;2.80;;;18.70;63.40;;;;;;13039694;22;20144;-57
2023/05/28 09:45:11;;;;;;;4.70;3.20;;;18.70;63.40;;;;;;13038809;22;20103;-55
2023/05/28 09:50:12;;;;;;;6.75;2.90;;;18.70;63.30;;;;;;13011069;22;20582;-58
2023/05/28 09:55:17;;;;;;;6.20;2.97;;;18.70;63.10;;;;;;13013185;22;20026;-57
2023/05/28 10:00:26;;;;;;;8.00;3.00;;;18.80;63.20;;;;;;13011632;22;20003;-57
2023/05/28 10:05:32;;;;;;;9.10;3.67;;;18.80;63.20;;;;;;13011385;22;20424;-57
2023/05/28 10:10:33;;;;;;;5.65;3.15;;;18.80;63.00;;;;;;13012854;22;19999;-57
2023/05/28 10:15:36;;;;;;;7.90;3.20;;;18.90;62.90;;;;;;13041021;22;20024;-56
2023/05/28 10:20:37;;;;;;;8.60;2.80;;;18.90;63.00;;;;;;13010987;22;20002;-57
2023/05/28 10:25:38;;;;;;;5.32;2.90;;;18.90;63.00;;;;;;12984092;22;20347;-56
2023/05/28 10:30:38;;;;;;;7.72;3.72;;;18.90;63.00;;;;;;13010263;22;20015;-55
2023/05/28 10:35:55;;;;;;;15.85;3.35;;;18.90;63.10;;;;;;13012606;22;20024;-58
2023/05/28 10:41:02;;;;;;;6.20;3.20;;;18.90;63.10;;;;;;13010882;22;20015;-57
2023/05/28 10:46:24;;;;;;;8.45;3.65;;;18.90;63.10;;;;;;13038091;22;20015;-56
2023/05/28 10:52:02;;;;;;;6.25;3.03;;;18.90;63.10;;;;;;12989262;22;20332;-56
2023/05/28 10:57:18;;;;;;;5.85;3.72;;;19.00;63.00;;;;;;13010916;22;20121;-57
2023/05/28 11:02:25;;;;;;;6.15;2.90;;;19.00;63.00;;;;;;13011897;22;20007;-57
2023/05/28 11:07:35;;;;;;;4.93;3.10;;;19.10;62.90;;;;;;13010329;22;20318;-56
2023/05/28 11:12:38;;;;;;;5.22;3.10;;;19.10;62.90;;;;;;13008501;22;19995;-56
2023/05/28 11:17:44;;;;;;;8.18;2.78;;;19.10;62.90;;;;;;12984189;22;20208;-55
2023/05/28 11:22:45;;;;;;;7.30;3.65;;;19.10;63.00;;;;;;13010781;22;20007;-56
2023/05/28 11:27:47;;;;;;;6.93;2.80;;;19.10;63.00;;;;;;13010159;22;20426;-55
2023/05/28 11:32:49;;;;;;;4.90;3.08;;;19.20;62.90;;;;;;13041277;22;19995;-60
2023/05/28 11:37:51;;;;;;;7.07;3.80;;;19.20;63.00;;;;;;12988798;22;20074;-55
2023/05/28 11:42:58;;;;;;;4.65;2.80;;;19.10;63.20;;;;;;13042393;22;20008;-56
2023/05/28 11:47:59;;;;;;;4.60;2.35;;;19.20;63.40;;;;;;13014319;22;20419;-56
2023/05/28 11:53:00;;;;;;;5.25;3.20;;;19.20;63.30;;;;;;13013787;22;20062;-56
2023/05/28 11:58:00;;;;;;;5.25;3.00;;;19.20;63.30;;;;;;13014033;22;20027;-57
2023/05/28 12:03:01;;;;;;;6.53;3.13;;;19.20;63.20;;;;;;13040730;22;20398;-56
2023/05/28 12:08:02;;;;;;;9.00;2.88;;;19.20;63.20;;;;;;13041337;22;19996;-57
2023/05/28 12:13:05;;;;;;;4.05;2.67;;;19.20;63.20;;;;;;13040508;22;20006;-57
2023/05/28 12:18:06;;;;;;;6.70;3.00;;;19.20;63.20;;;;;;13012413;22;20607;-57
2023/05/28 12:23:09;;;;;;;5.85;3.00;;;19.30;63.20;;;;;;13040683;22;20004;-55
2023/05/28 12:28:16;;;;;;;6.22;3.22;;;19.30;63.10;;;;;;13012460;22;19995;-55
2023/05/28 12:33:17;;;;;;;4.65;2.60;;;19.30;63.10;;;;;;12988037;22;19999;-56
2023/05/28 12:38:19;;;;;;;4.15;2.55;;;19.30;63.10;;;;;;13013196;22;20026;-56
2023/05/28 12:43:21;;;;;;;5.70;3.30;;;19.30;63.00;;;;;;13012269;22;20007;-56
2023/05/28 12:48:21;;;;;;;5.15;2.70;;;19.40;63.10;;;;;;12987658;22;20002;-57
2023/05/28 12:53:22;;;;;;;4.25;2.53;;;19.40;63.10;;;;;;13040513;22;20433;-56
2023/05/28 12:58:23;;;;;;;3.38;2.50;;;19.40;63.00;;;;;;12987119;22;20011;-56
2023/05/28 13:03:24;;;;;;;5.93;2.95;;;19.40;63.00;;;;;;13013802;22;20125;-57
2023/05/28 13:08:25;;;;;;;4.97;3.33;;;19.40;63.00;;;;;;13012729;22;19995;-54
2023/05/28 13:13:25;;;;;;;6.45;3.15;;;19.40;63.10;;;;;;13041376;22;20095;-55
2023/05/28 13:18:26;;;;;;;5.25;2.88;;;19.40;63.00;;;;;;13015096;22;20003;-55
2023/05/28 13:23:27;;;;;;;5.55;3.78;;;19.40;63.00;;;;;;13040250;22;20430;-57
2023/05/28 13:28:27;;;;;;;5.15;2.63;;;19.40;63.00;;;;;;13039477;22;19998;-57
2023/05/28 13:33:28;;;;;;;4.40;2.83;;;19.40;63.00;;;;;;13012610;22;20060;-55
2023/05/28 13:38:29;;;;;;;4.82;2.90;;;19.50;63.00;;;;;;13039430;22;20050;-56
2023/05/28 13:43:30;;;;;;;5.88;3.15;;;19.50;63.00;;;;;;13010771;22;20447;-56
2023/05/28 13:48:31;;;;;;;4.75;2.38;;;19.50;63.00;;;;;;13012590;22;19995;-56
2023/05/28 13:53:34;;;;;;;4.93;3.00;;;19.50;63.00;;;;;;13014163;22;20007;-56
2023/05/28 13:58:35;;;;;;;5.43;3.47;;;19.50;63.10;;;;;;12988903;22;20015;-57
2023/05/28 14:03:36;;;;;;;4.47;2.80;;;19.40;63.20;;;;;;13013901;22;20011;-56
2023/05/28 14:08:37;;;;;;;4.93;3.13;;;19.40;63.30;;;;;;13014429;22;19991;-57
2023/05/28 14:13:37;;;;;;;4.88;2.63;;;19.30;63.20;;;;;;13013832;22;20003;-56
2023/05/28 14:18:38;;;;;;;5.45;2.75;;;19.40;63.30;;;;;;13039998;22;19999;-56
2023/05/28 14:23:39;;;;;;;6.85;3.42;;;19.40;63.20;;;;;;13010409;22;20356;-56
2023/05/28 14:28:39;;;;;;;4.50;2.83;;;19.40;63.20;;;;;;13038193;22;20065;-56
2023/05/28 14:33:40;;;;;;;5.50;2.97;;;19.40;63.30;;;;;;13037824;22;20029;-56
2023/05/28 14:38:41;;;;;;;3.88;2.90;;;19.40;63.20;;;;;;13010907;22;20019;-57
2023/05/28 14:43:41;;;;;;;6.57;2.85;;;19.40;63.10;;;;;;13037461;22;20490;-56
2023/05/28 14:48:42;;;;;;;4.60;2.45;;;19.40;63.20;;;;;;13037968;22;20216;-57
2023/05/28 14:53:43;;;;;;;5.47;3.67;;;19.40;63.00;;;;;;13010880;22;20034;-56
2023/05/28 14:58:43;;;;;;;5.72;3.30;;;19.40;63.70;;;;;;13010371;22;20048;-58
2023/05/28 15:03:44;;;;;;;6.97;3.20;;;19.40;63.30;;;;;;13011031;22;20434;-57
2023/05/28 15:08:45;;;;;;;5.70;4.10;;;19.40;63.50;;;;;;13010942;22;20015;-59
2023/05/28 15:13:45;;;;;;;9.23;4.28;;;19.50;63.90;;;;;;13037771;22;20322;-56
2023/05/28 15:18:46;;;;;;;6.30;3.47;;;19.60;63.30;;;;;;13039219;22;20003;-55
2023/05/28 15:23:47;;;;;;;8.23;4.07;;;19.60;63.40;;;;;;13011899;22;20057;-57
2023/05/28 15:28:48;;;;;;;6.75;3.88;;;19.50;63.50;;;;;;13012846;22;20002;-57
2023/05/28 15:33:49;;;;;;;8.32;3.63;;;19.60;63.20;;;;;;13040226;22;20033;-56
2023/05/28 15:38:50;;;;;;;8.70;3.90;;;19.60;63.10;;;;;;13040262;22;20004;-54
2023/05/28 15:43:53;;;;;;;16.73;4.60;;;19.70;62.50;;;;;;13039662;22;20007;-57
2023/05/28 15:48:53;;;;;;;12.93;4.45;;;19.90;62.10;;;;;;13011919;22;19999;-56
2023/05/28 15:53:54;;;;;;;13.68;5.30;;;19.90;60.90;;;;;;13011576;22;20033;-55
2023/05/28 15:58:55;;;;;;;12.77;4.85;;;19.90;61.00;;;;;;13012503;22;20651;-56
2023/05/28 16:03:56;;;;;;;12.40;5.53;;;19.90;60.90;;;;;;13040491;22;20407;-58
2023/05/28 16:08:57;;;;;;;8.65;5.15;;;20.00;62.80;;;;;;13012241;22;20078;-56
2023/05/28 16:14:00;;;;;;;9.18;4.20;;;20.10;62.90;;;;;;13039887;22;20037;-55
2023/05/28 16:19:01;;;;;;;15.75;5.25;;;20.20;63.60;;;;;;13043289;22;20000;-55
2023/05/28 16:24:01;;;;;;;13.77;4.80;;;20.20;63.60;;;;;;13043639;22;20000;-56
2023/05/28 16:29:03;;;;;;;8.55;4.03;;;20.30;63.40;;;;;;13042684;22;20019;-56
2023/05/28 16:34:04;;;;;;;13.48;5.15;;;20.30;63.60;;;;;;13015548;22;20057;-54
2023/05/28 16:39:05;;;;;;;10.95;4.53;;;20.30;63.80;;;;;;13043549;22;20060;-56
2023/05/28 16:44:06;;;;;;;17.52;5.25;;;20.20;63.50;;;;;;13015592;22;20007;-56
2023/05/28 16:49:07;;;;;;;11.00;4.35;;;20.10;63.60;;;;;;13042872;22;20625;-56
2023/05/28 16:54:07;;;;;;;8.00;4.80;;;19.90;63.10;;;;;;13042492;22;19995;-56
2023/05/28 16:59:08;;;;;;;11.35;4.93;;;19.90;62.70;;;;;;13042174;22;20045;-55
2023/05/28 17:04:09;;;;;;;8.15;4.25;;;19.90;62.80;;;;;;13015552;22;20011;-55
2023/05/28 17:09:10;;;;;;;11.90;5.50;;;19.90;62.60;;;;;;13015340;22;20007;-57
2023/05/28 17:14:10;;;;;;;15.18;5.20;;;19.90;62.40;;;;;;13015423;22;20030;-58
2023/05/28 17:19:11;;;;;;;7.97;4.07;;;19.90;62.10;;;;;;13014530;22;19999;-57
2023/05/28 17:24:16;;;;;;;10.13;4.50;;;19.90;61.50;;;;;;13041441;22;20284;-57
2023/05/28 17:29:16;;;;;;;10.88;4.93;;;19.90;61.60;;;;;;13010890;22;20002;-58
2023/05/28 17:34:17;;;;;;;10.38;4.32;;;19.80;61.50;;;;;;13041267;22;20019;-57
2023/05/28 17:39:18;;;;;;;9.57;4.80;;;19.80;61.40;;;;;;13015003;22;19999;-59
2023/05/28 17:44:18;;;;;;;16.70;5.00;;;19.80;61.30;;;;;;13041423;22;20437;-57
2023/05/28 17:49:20;;;;;;;10.23;4.40;;;19.80;61.50;;;;;;13014248;22;20188;-56
2023/05/28 17:54:21;;;;;;;10.55;4.68;;;19.80;61.40;;;;;;13015033;22;19999;-57
2023/05/28 17:59:22;;;;;;;10.85;4.45;;;19.80;61.40;;;;;;12988437;22;20554;-57
2023/05/28 18:04:22;;;;;;;7.70;4.20;;;19.80;61.60;;;;;;13014302;22;20086;-56
2023/05/28 18:09:23;;;;;;;8.45;4.50;;;19.70;61.70;;;;;;13040976;22;19999;-56
2023/05/28 18:14:29;;;;;;;8.38;4.63;;;19.80;61.80;;;;;;13041723;22;20022;-57
2023/05/28 18:19:30;;;;;;;7.65;4.32;;;19.70;61.70;;;;;;13015496;22;20005;-56
2023/05/28 18:24:31;;;;;;;9.32;4.85;;;20.00;61.20;;;;;;13040323;22;20014;-55
2023/05/28 18:29:33;;;;;;;8.60;4.45;;;19.90;61.30;;;;;;13040757;22;19995;-56
2023/05/28 18:34:34;;;;;;;12.27;4.28;;;19.90;61.60;;;;;;13041366;22;19999;-55
2023/05/28 18:39:34;;;;;;;18.88;4.93;;;19.80;61.80;;;;;;13039940;22;20026;-56
2023/05/28 18:44:38;;;;;;;10.57;4.45;;;19.80;62.60;;;;;;13010858;22;20045;-57
2023/05/28 18:49:39;;;;;;;10.68;3.72;;;19.80;62.40;;;;;;13013156;22;19995;-56
2023/05/28 18:54:40;;;;;;;14.98;4.20;;;19.70;62.60;;;;;;13011471;22;20031;-57
2023/05/28 18:59:41;;;;;;;7.75;3.45;;;19.70;62.80;;;;;;13040157;22;20006;-57
2023/05/28 19:04:42;;;;;;;10.38;4.47;;;19.70;63.00;;;;;;13012808;22;20004;-55
2023/05/28 19:09:43;;;;;;;12.55;4.22;;;19.70;63.00;;;;;;12987090;22;20454;-56
2023/05/28 19:14:43;;;;;;;11.82;4.30;;;19.70;63.10;;;;;;13040303;22;20004;-56
2023/05/28 19:19:45;;;;;;;8.05;4.55;;;19.70;63.20;;;;;;13012738;22;20019;-56
2023/05/28 19:24:46;;;;;;;8.32;4.13;;;19.70;63.20;;;;;;13012635;22;20308;-57
2023/05/28 19:29:48;;;;;;;9.00;3.92;;;19.70;63.40;;;;;;13012389;22;20015;-57
2023/05/28 19:34:49;;;;;;;7.88;4.07;;;19.70;63.40;;;;;;13012972;22;19995;-57
2023/05/28 19:39:50;;;;;;;10.75;3.65;;;19.70;63.60;;;;;;13012508;22;19999;-56
2023/05/28 19:44:50;;;;;;;6.55;4.07;;;19.70;63.60;;;;;;12986033;22;20043;-57
2023/05/28 19:49:51;;;;;;;8.10;4.85;;;19.70;63.70;;;;;;13037314;22;20019;-58
2023/05/28 19:54:52;;;;;;;11.88;4.10;;;19.80;63.80;;;;;;12989837;22;20355;-56
2023/05/28 19:59:54;;;;;;;9.48;3.80;;;19.80;64.10;;;;;;13042605;22;20015;-56
2023/05/28 20:04:58;;;;;;;10.20;3.92;;;19.70;64.00;;;;;;12987229;22;20007;-56
2023/05/28 20:09:59;;;;;;;5.53;3.28;;;19.70;63.90;;;;;;13014528;22;20074;-56
2023/05/28 20:15:01;;;;;;;7.60;3.65;;;19.60;64.00;;;;;;13040747;22;20074;-56
2023/05/28 20:20:02;;;;;;;6.20;3.80;;;19.60;64.00;;;;;;13041161;22;20062;-56
2023/05/28 20:25:04;;;;;;;6.97;3.90;;;19.60;64.00;;;;;;13015678;22;20007;-57
2023/05/28 20:30:06;;;;;;;7.20;3.70;;;19.60;64.00;;;;;;13040654;22;20005;-56
2023/05/28 20:35:09;;;;;;;5.97;3.38;;;19.60;64.00;;;;;;13040426;22;20578;-55
2023/05/28 20:40:13;;;;;;;7.88;4.13;;;19.60;64.10;;;;;;13013988;22;20050;-57
2023/05/28 20:45:14;;;;;;;7.32;4.40;;;19.50;63.90;;;;;;13042134;22;20014;-56
2023/05/28 20:50:15;;;;;;;10.20;4.30;;;19.50;63.90;;;;;;13015796;22;20683;-56
2023/05/28 20:55:17;;;;;;;5.90;4.00;;;19.50;63.90;;;;;;13015384;22;20023;-56
2023/05/28 21:00:21;;;;;;;7.55;4.00;;;19.50;63.90;;;;;;13016197;22;20018;-56
2023/05/28 21:05:23;;;;;;;5.57;3.50;;;19.50;64.20;;;;;;13042536;22;20008;-56
2023/05/28 21:10:24;;;;;;;7.18;3.70;;;19.50;64.10;;;;;;12989834;22;19999;-56
2023/05/28 21:15:25;;;;;;;6.93;4.57;;;19.50;64.40;;;;;;13015228;22;19995;-54
2023/05/28 21:20:26;;;;;;;8.05;3.83;;;19.50;64.30;;;;;;13042144;22;20023;-57
2023/05/28 21:25:26;;;;;;;6.40;4.00;;;19.50;63.90;;;;;;13042135;22;20449;-56
2023/05/28 21:30:29;;;;;;;7.05;3.60;;;19.50;63.90;;;;;;13042001;22;20014;-56
2023/05/28 21:35:30;;;;;;;4.68;3.28;;;19.40;63.90;;;;;;13015019;22;20040;-57
2023/05/28 21:40:30;;;;;;;5.45;3.55;;;19.40;64.00;;;;;;13041771;22;20144;-56
2023/05/28 21:45:31;;;;;;;8.45;4.30;;;19.40;63.90;;;;;;13041764;22;20367;-57
2023/05/28 21:50:32;;;;;;;6.43;3.85;;;19.40;63.80;;;;;;13042609;22;20042;-56
2023/05/28 21:55:32;;;;;;;5.45;4.07;;;19.40;63.90;;;;;;13041938;22;20007;-57
2023/05/28 22:00:33;;;;;;;4.88;2.95;;;19.40;63.80;;;;;;13041618;22;19995;-56
2023/05/28 22:05:34;;;;;;;5.72;3.50;;;19.40;63.90;;;;;;13013767;22;20013;-56
2023/05/28 22:10:35;;;;;;;6.93;4.00;;;19.40;63.80;;;;;;13039735;22;20003;-57
2023/05/28 22:15:35;;;;;;;5.78;3.95;;;19.30;63.70;;;;;;13013940;22;20045;-56
2023/05/28 22:20:36;;;;;;;7.38;3.53;;;19.30;63.80;;;;;;12988003;22;20023;-56
2023/05/28 22:25:37;;;;;;;5.53;3.30;;;19.30;63.70;;;;;;13013752;22;20007;-56
2023/05/28 22:30:37;;;;;;;5.65;3.47;;;19.30;63.60;;;;;;13013954;22;20411;-56
2023/05/28 22:35:38;;;;;;;6.85;3.58;;;19.30;63.70;;;;;;13014069;22;20031;-56
2023/05/28 22:40:39;;;;;;;5.55;3.65;;;19.40;63.80;;;;;;13040806;22;20407;-56
2023/05/28 22:45:39;;;;;;;4.68;3.35;;;19.30;63.70;;;;;;12987662;22;20100;-55
2023/05/28 22:50:40;;;;;;;5.20;3.08;;;19.30;63.70;;;;;;13040733;22;19997;-56
2023/05/28 22:55:41;;;;;;;4.38;3.10;;;19.30;63.70;;;;;;13013387;22;20000;-55
2023/05/28 23:00:42;;;;;;;4.78;2.95;;;19.30;63.80;;;;;;13040607;22;20078;-55
2023/05/28 23:05:43;;;;;;;6.03;3.50;;;19.30;63.80;;;;;;13040485;22;20635;-57
2023/05/28 23:10:44;;;;;;;4.95;2.65;;;19.30;63.80;;;;;;13039998;22;20034;-56
2023/05/28 23:15:44;;;;;;;5.25;3.00;;;19.30;63.60;;;;;;13040156;22;19999;-56
2023/05/28 23:20:48;;;;;;;6.13;3.78;;;19.30;63.60;;;;;;13040617;22;20023;-56
2023/05/28 23:25:50;;;;;;;4.72;2.75;;;19.30;63.60;;;;;;13013303;22;20011;-57
2023/05/28 23:30:51;;;;;;;4.85;2.80;;;19.20;63.50;;;;;;13040413;22;20002;-56
2023/05/28 23:35:51;;;;;;;5.05;3.03;;;19.20;63.30;;;;;;13012419;22;20067;-54
2023/05/28 23:40:52;;;;;;;6.30;2.90;;;19.20;63.20;;;;;;13039703;22;20011;-56
2023/05/28 23:45:53;;;;;;;5.47;2.85;;;19.20;63.30;;;;;;13012491;22;20053;-57
2023/05/28 23:50:53;;;;;;;4.15;2.65;;;19.20;63.30;;;;;;13040190;22;20030;-56
2023/05/28 23:55:56;;;;;;;5.15;2.80;;;19.20;63.30;;;;;;13012172;22;19995;-56
